• Join FlightAware (Why Join?)
  • Login
  • US Flag 
Trick or treat! (Boo!!) 
01:50AM EDT


 

Airport Tracker/Info


-or-


 

Live Flight TrackerFlight Track Log ✈ SWA662 ✈ 23-Jul-2013 ✈ KLAX - KDEN

Flight Track Log - Related Links

Times and Time Zones

All times are in EDT time to prevent confusion due to time zone crossing. See the SWA662 flight status page for this flight to view local times or setup timezone preferences in your user account.

Time Position Orientation Groundspeed Altitude Reporting Facility
EDT Latitude Longitude Course Direction KTS MPH feet Rate Location/Type
11:45PM 33.9470 -118.4330 263° West 151 174 1,200  Level FlightAware
11:46PM 33.9450 -118.4560 264° West 183 211 2,000 1,800 Climbing FlightAware
11:46PM 33.9420 -118.4840 263° West 219 252 2,700 1,740 Climbing FlightAware
11:47PM 33.9390 -118.5200 264° West 252 290 3,600 2,280 Climbing FlightAware
11:47PM 33.9360 -118.5550 264° West 266 306 4,800 2,820 Climbing FlightAware
11:47PM 33.9330 -118.5960 265° West 274 315 6,200 2,700 Climbing FlightAware
11:48PM 33.9260 -118.6290 256° West 284 327 7,300 2,880 Climbing FlightAware
11:48PM 33.9020 -118.6550 222° Southwest 297 342 8,400 3,120 Climbing FlightAware
11:49PM 33.8770 -118.6610 191° South 300 345 9,400 3,180 Climbing FlightAware
11:49PM 33.8600 -118.6570 169° South 302 348 10,000 2,640 Climbing FlightAware
11:49PM 33.8470 -118.6480 150° Southeast 306 352 10,500 1,800 Climbing FlightAware
11:49PM 33.8310 -118.6290 135° Southeast 324 373 10,900 2,160 Climbing FlightAware
11:49PM 33.8250 -118.6100 111° Southeast 319 367 11,600 3,600 Climbing FlightAware
11:50PM 33.8220 -118.5860 99° East 314 361 12,400 2,880 Climbing FlightAware
11:50PM 33.8270 -118.5600 77° East 327 376 12,800 1,680 Climbing FlightAware
11:50PM 33.8380 -118.5410 55° Northeast 341 392 13,100 2,760 Climbing FlightAware
11:51PM 33.8900 -118.4820 43° Northeast 362 417 15,100 2,820 Climbing FlightAware
11:51PM 33.9410 -118.4180 46° Northeast 374 430 17,100 2,580 Climbing FlightAware
11:52PM 33.9810 -118.3480 55° Northeast 385 443 18,800 2,460 Climbing FlightAware
11:53PM 34.0200 -118.2780 56° Northeast 397 457 20,400 2,400 Climbing FlightAware
11:54PM 34.0710 -118.1880 56° Northeast 412 474 22,200 2,220 Climbing FlightAware
11:54PM 34.1140 -118.1120 56° Northeast 424 488 23,600 1,920 Climbing FlightAware
11:55PM 34.1530 -118.0440 55° Northeast 434 499 24,800 1,980 Climbing FlightAware
11:56PM 34.2200 -117.9380 53° Northeast 455 524 26,200 1,860 Climbing FlightAware
11:56PM 34.2810 -117.8500 50° Northeast 469 540 27,400 1,620 Climbing FlightAware
11:57PM 34.3320 -117.7770 50° Northeast 478 550 28,400 1,560 Climbing FlightAware
11:58PM 34.4010 -117.6780 50° Northeast 489 563 29,600 1,500 Climbing FlightAware
11:58PM 34.4590 -117.5940 50° Northeast 497 572 30,600 1,740 Climbing FlightAware
11:59PM 34.5240 -117.4990 50° Northeast 493 567 32,100 2,100 Climbing FlightAware
12:00AM 34.5810 -117.4170 50° Northeast 483 556 33,600 1,860 Climbing FlightAware
12:00AM 34.6440 -117.3240 51° Northeast 485 558 34,700 1,380 Climbing FlightAware
12:01AM 34.7030 -117.2380 50° Northeast 487 560 35,600 1,260 Climbing FlightAware
12:02AM 34.7640 -117.1490 50° Northeast 488 562 36,500 960 Climbing FlightAware
12:03AM 34.8240 -117.0600 51° Northeast 492 566 37,000 300 Climbing FlightAware
12:03AM 34.8860 -116.9690 50° Northeast 492 566 37,000 360 Level FlightAware
12:04AM 34.9390 -116.8900 51° Northeast 497 572 37,500 1,140 Climbing FlightAware
12:05AM 34.9960 -116.8060 50° Northeast 489 563 38,500 1,080 Climbing FlightAware
12:05AM 35.0550 -116.7180 51° Northeast 484 557 39,000 360 Climbing FlightAware
12:06AM 35.1080 -116.6390 51° Northeast 484 557 39,000  Level FlightAware
12:07AM 35.1600 -116.5630 50° Northeast 484 557 39,000  Level FlightAware
12:07AM 35.2370 -116.4470 51° Northeast 483 556 39,000  Level FlightAware
12:08AM 35.2820 -116.3790 51° Northeast 481 554 39,000  Level FlightAware
12:09AM 35.3530 -116.2730 51° Northeast 479 551 39,000  Level FlightAware
12:10AM 35.4330 -116.1520 51° Northeast 477 549 39,000  Level FlightAware
12:10AM 35.4910 -116.0640 51° Northeast 478 550 39,000  Level FlightAware
12:11AM 35.5350 -115.9730 59° Northeast 473 544 39,000  Level FlightAware
12:12AM 35.5780 -115.8660 64° Northeast 473 544 39,000  Level FlightAware
12:12AM 35.6170 -115.7660 64° Northeast 471 542 39,000  Level FlightAware
12:13AM 35.6530 -115.6760 64° Northeast 470 541 39,000  Level FlightAware
12:14AM 35.6900 -115.5810 64° Northeast 470 541 39,000  Level FlightAware
12:14AM 35.7310 -115.4770 64° Northeast 470 541 39,000  Level FlightAware
12:15AM 35.7610 -115.3990 65° Northeast 469 540 39,000  Level FlightAware
12:16AM 35.8020 -115.2940 64° Northeast 469 540 39,000  Level FlightAware
12:16AM 35.8400 -115.1950 65° Northeast 469 540 39,000  Level FlightAware
12:17AM 35.8810 -115.0920 64° Northeast 469 540 39,000  Level FlightAware
12:18AM 35.9190 -114.9910 65° Northeast 470 541 39,000  Level FlightAware
12:19AM 35.9570 -114.8930 64° Northeast 471 542 39,000  Level FlightAware
12:19AM 35.9950 -114.7940 65° Northeast 471 542 39,000  Level FlightAware
12:20AM 36.0310 -114.7010 64° Northeast 472 543 39,000  Level FlightAware
12:21AM 36.0680 -114.6020 65° Northeast 472 543 39,000  Level FlightAware
12:21AM 36.1090 -114.4940 65° Northeast 472 543 39,000  Level FlightAware
12:22AM 36.1550 -114.3740 65° Northeast 472 543 39,000  Level FlightAware
12:23AM 36.1890 -114.2830 65° Northeast 471 542 39,000  Level FlightAware
12:23AM 36.2330 -114.1670 65° Northeast 472 543 39,000  Level FlightAware
12:24AM 36.2700 -114.0680 65° Northeast 474 545 39,000  Level FlightAware
12:25AM 36.3110 -113.9600 65° Northeast 474 545 39,000  Level FlightAware
12:26AM 36.3470 -113.8620 65° Northeast 474 545 39,000  Level FlightAware
12:26AM 36.3880 -113.7530 65° Northeast 474 545 39,000  Level FlightAware
12:27AM 36.4200 -113.6640 66° East 474 545 39,000  Level FlightAware
12:28AM 36.4570 -113.5660 65° Northeast 475 547 39,000  Level FlightAware
12:28AM 36.4940 -113.4640 66° East 475 547 39,000  Level FlightAware
12:29AM 36.5300 -113.3680 65° Northeast 476 548 39,000  Level FlightAware
12:30AM 36.5710 -113.2550 66° East 477 549 39,000  Level FlightAware
12:30AM 36.6120 -113.1420 66° East 479 551 39,000  Level FlightAware
12:31AM 36.6490 -113.0410 65° Northeast 479 551 39,000  Level FlightAware
12:32AM 36.6850 -112.9410 66° East 478 550 39,000  Level FlightAware
12:32AM 36.7160 -112.8540 66° East 478 550 39,000  Level FlightAware
12:33AM 36.7550 -112.7440 66° East 477 549 39,000  Level FlightAware
12:34AM 36.7910 -112.6450 66° East 476 548 39,000  Level FlightAware
12:34AM 36.8230 -112.5550 66° East 476 548 39,000  Level FlightAware
12:35AM 36.8610 -112.4480 66° East 476 548 39,000  Level FlightAware
12:36AM 36.9020 -112.3330 66° East 475 547 39,000  Level FlightAware
12:36AM 36.9370 -112.2340 66° East 475 547 39,000  Level FlightAware
12:37AM 36.9730 -112.1330 66° East 473 544 39,000  Level FlightAware
12:38AM 37.0120 -112.0220 66° East 473 544 39,000  Level FlightAware
12:39AM 37.0490 -111.9140 67° East 473 544 39,000  Level FlightAware
12:39AM 37.0790 -111.8310 66° East 473 544 39,000  Level FlightAware
12:40AM 37.1160 -111.7240 67° East 474 545 39,000  Level FlightAware
12:40AM 37.1510 -111.6230 66° East 474 545 39,000  Level FlightAware
12:41AM 37.1840 -111.5270 67° East 476 548 39,000  Level FlightAware
12:42AM 37.2200 -111.4210 67° East 477 549 39,000  Level FlightAware
12:42AM 37.2560 -111.3150 67° East 478 550 39,000  Level FlightAware
12:43AM 37.2920 -111.2110 66° East 478 550 39,000  Level FlightAware
12:44AM 37.3300 -111.1010 66° East 477 549 39,000  Level FlightAware
12:45AM 37.3640 -111.0010 67° East 476 548 39,000  Level FlightAware
12:45AM 37.4020 -110.8890 67° East 478 550 39,000  Level FlightAware
12:46AM 37.4330 -110.7970 67° East 477 549 39,000  Level FlightAware
12:47AM 37.4670 -110.6950 67° East 475 547 39,000  Level FlightAware
12:47AM 37.5040 -110.5830 67° East 477 549 39,000  Level FlightAware
12:48AM 37.5360 -110.4890 67° East 477 549 39,000  Level FlightAware
12:49AM 37.5690 -110.3890 67° East 479 551 39,000  Level FlightAware
12:49AM 37.6020 -110.2890 67° East 481 554 39,000  Level FlightAware
12:50AM 37.6370 -110.1810 68° East 480 552 39,000  Level FlightAware
12:51AM 37.6810 -110.0710 63° Northeast 483 556 39,000  Level FlightAware
12:51AM 37.7250 -109.9610 63° Northeast 486 559 39,000  Level FlightAware
12:52AM 37.7660 -109.8600 63° Northeast 487 560 39,000  Level FlightAware
12:53AM 37.8090 -109.7520 63° Northeast 487 560 39,000  Level FlightAware
12:53AM 37.8470 -109.6550 64° Northeast 483 556 39,000  Level FlightAware
12:54AM 37.8870 -109.5540 63° Northeast 479 551 39,000  Level FlightAware
12:55AM 37.9260 -109.4550 63° Northeast 482 555 39,000  Level FlightAware
12:55AM 37.9630 -109.3620 63° Northeast 485 558 39,000  Level FlightAware
12:56AM 38.0080 -109.2470 64° Northeast 483 556 39,000  Level FlightAware
12:57AM 38.0480 -109.1450 64° Northeast 483 556 39,000  Level FlightAware
12:57AM 38.0830 -109.0560 63° Northeast 482 555 39,000  Level FlightAware
12:58AM 38.1230 -108.9530 64° Northeast 480 552 39,000  Level FlightAware
12:59AM 38.1650 -108.8430 64° Northeast 479 551 39,000  Level FlightAware
12:59AM 38.1980 -108.7570 64° Northeast 479 551 39,000  Level FlightAware
01:00AM 38.2400 -108.6500 63° Northeast 476 548 39,000  Level FlightAware
01:01AM 38.2800 -108.5440 64° Northeast 476 548 39,000  Level FlightAware
01:01AM 38.3220 -108.4350 64° Northeast 478 550 39,000  Level FlightAware
01:02AM 38.3610 -108.3320 64° Northeast 482 555 39,000  Level FlightAware
01:03AM 38.4000 -108.2310 64° Northeast 484 557 39,000  Level FlightAware
01:03AM 38.4430 -108.1180 64° Northeast 487 560 39,000  Level FlightAware
01:04AM 38.4780 -108.0240 65° Northeast 487 560 39,000 -180 Level FlightAware
01:05AM 38.5170 -107.9210 64° Northeast 486 559 38,800 -660 Descending FlightAware
01:05AM 38.5590 -107.8070 65° Northeast 483 556 38,100 -1,020 Descending FlightAware
01:06AM 38.5930 -107.7150 65° Northeast 482 555 37,500 -900 Descending FlightAware
01:07AM 38.6320 -107.6130 64° Northeast 480 552 37,000 -360 Descending FlightAware
01:07AM 38.6740 -107.4980 65° Northeast 479 551 37,000  Level FlightAware
01:08AM 38.7130 -107.3930 65° Northeast 479 551 37,000 -120 Level FlightAware
01:09AM 38.7540 -107.2820 65° Northeast 480 552 36,900 -600 Descending FlightAware
01:10AM 38.7920 -107.1790 65° Northeast 472 543 36,200 -960 Descending FlightAware
01:10AM 38.8280 -107.0780 65° Northeast 472 543 35,600 -1,020 Descending FlightAware
01:15AM 39.0860 -106.3630 65° Northeast 445 512 30,800 -1,020 Descending FlightAware
01:16AM 39.1250 -106.2540 65° Northeast 438 504 30,000 -1,380 Descending FlightAware
01:16AM 39.1580 -106.1590 66° East 431 496 28,900 -1,800 Descending FlightAware
01:17AM 39.1820 -106.0920 65° Northeast 433 498 27,800 -2,160 Descending FlightAware
01:18AM 39.2210 -105.9810 66° East 422 486 26,100 -2,160 Descending FlightAware
01:19AM 39.2570 -105.8790 65° Northeast 414 476 24,600 -2,040 Descending FlightAware
01:19AM 39.2870 -105.7920 66° East 405 466 23,300 -1,380 Descending FlightAware
01:20AM 39.3190 -105.7020 65° Northeast 394 453 22,700 -480 Descending FlightAware
01:21AM 39.3430 -105.6370 64° Northeast 394 453 22,700  Level FlightAware
01:21AM 39.3660 -105.5720 65° Northeast 394 453 22,700  Level FlightAware
01:22AM 39.3980 -105.4840 65° Northeast 394 453 22,700  Level FlightAware
01:23AM 39.4360 -105.3770 65° Northeast 394 453 22,700 -2,280 Level FlightAware
01:27AM 39.6310 -104.8960 62° Northeast 308 354 10,700 -2,640 Descending FlightAware
01:28AM 39.6620 -104.8310 58° Northeast 287 330 9,700 -900 Descending FlightAware
01:28AM 39.6780 -104.7970 59° Northeast 287 330 9,700  Level FlightAware
01:29AM 39.6930 -104.7660 58° Northeast 287 330 9,700  Level FlightAware
01:29AM 39.7070 -104.7360 59° Northeast 287 330 9,700 -2,580 Level FlightAware
01:30AM 39.7190 -104.7070 62° Northeast 203 234 7,700 -3,600 Descending FlightAware
01:30AM 39.7260 -104.6940 55° Northeast 200 230 7,500 -300 Descending FlightAware
01:30AM 39.7370 -104.6700 59° Northeast 200 230 7,500 -780 Level FlightAware
01:31AM 39.7675 -104.6447 59° Northeast 168 193 6,500 -1,020 Descending Denver Center
01:32AM 39.8164 -104.6428 North 178 205 5,600 -600 Descending Denver Center
01:33AM 39.8514 -104.6411 North 144 166 5,300 -300 Descending Denver Center
01:35AM 39.8500 -104.6667 North  Level FlightAware Approximate
01:42AM 39.8617 -104.6732 North  Level Estimated
01:43AM 39.8617 -104.6732 North  Level Estimated